Time;durP1;ratioP1;P1;durP2;ratioP2;P2;SDS_P1;SDS_P2;PMS_P1;PMS_P2;Temp;Humidity;BMP_temperature;BMP_pressure;BME280_temperature;BME280_humidity;BME280_pressure;Samples;Min_cycle;Max_cycle;Signal;HPM_P1;HPM_P2
2023/12/05 00:02:17;;;;;;;0.20;0.20;;;;;;;;;;5011624;28;20049;-74
2023/12/05 00:04:46;;;;;;;0.10;0.10;;;;;;;;;;5028010;28;20401;-73
2023/12/05 00:07:19;;;;;;;0.10;0.10;;;;;;;;;;5027516;28;20103;-73
2023/12/05 00:09:45;;;;;;;0.20;0.20;;;;;;;;;;5027761;28;20095;-72
2023/12/05 00:12:34;;;;;;;0.20;0.20;;;;;;;;;;5027861;28;20104;-73
2023/12/05 00:15:10;;;;;;;0.20;0.20;;;;;;;;;;5027908;28;20033;-74
2023/12/05 00:17:36;;;;;;;;;;;;;;;;;;5015701;28;20469;-74
2023/12/05 00:20:06;;;;;;;0.30;0.30;;;;;;;;;;5031662;28;19913;-73
2023/12/05 00:22:36;;;;;;;0.20;0.20;;;;;;;;;;5031885;28;20041;-73
2023/12/05 00:25:05;;;;;;;0.10;0.10;;;;;;;;;;5032072;28;20505;-73
2023/12/05 00:27:31;;;;;;;0.20;0.20;;;;;;;;;;5054263;28;20484;-74
2023/12/05 00:29:58;;;;;;;0.20;0.20;;;;;;;;;;5073111;28;20029;-73
2023/12/05 00:32:36;;;;;;;0.10;0.10;;;;;;;;;;5073383;28;20108;-73
2023/12/05 00:35:32;;;;;;;0.20;0.20;;;;;;;;;;5073920;28;20035;-74
2023/12/05 00:37:59;;;;;;;0.10;0.10;;;;;;;;;;5073862;28;20427;-73
2023/12/05 00:40:30;;;;;;;0.28;0.28;;;;;;;;;;5073654;28;20380;-74
2023/12/05 00:43:00;;;;;;;14.07;12.93;;;;;;;;;;5073705;28;20048;-74
2023/12/05 00:46:02;;;;;;;0.50;0.50;;;;;;;;;;5073574;28;20463;-73
2023/12/05 00:48:31;;;;;;;8.10;7.68;;;;;;;;;;5073192;28;20054;-74
2023/12/05 00:51:07;;;;;;;0.10;0.10;;;;;;;;;;5073705;28;20482;-74
2023/12/05 00:53:59;;;;;;;0.10;0.10;;;;;;;;;;5073597;28;20167;-73
2023/12/05 00:56:47;;;;;;;0.73;0.73;;;;;;;;;;5012111;28;20041;-73
2023/12/05 00:59:21;;;;;;;4.32;4.13;;;;;;;;;;5011957;28;20057;-73
2023/12/05 01:01:48;;;;;;;0.20;0.20;;;;;;;;;;5058159;28;20040;-74
2023/12/05 01:04:15;;;;;;;0.10;0.10;;;;;;;;;;5073694;28;20040;-73
2023/12/05 01:06:47;;;;;;;0.20;0.20;;;;;;;;;;5073844;28;20036;-72
2023/12/05 01:09:16;;;;;;;0.30;0.30;;;;;;;;;;5073390;28;20028;-72
2023/12/05 01:11:42;;;;;;;0.10;0.10;;;;;;;;;;5073298;28;20013;-72
2023/12/05 01:17:25;;;;;;;0.77;0.77;;;;;;;;;;5073426;28;20036;-73
2023/12/05 01:19:52;;;;;;;0.20;0.20;;;;;;;;;;5073429;28;20016;-73
2023/12/05 01:22:20;;;;;;;0.10;0.10;;;;;;;;;;5073358;28;20023;-74
2023/12/05 01:24:53;;;;;;;0.10;0.10;;;;;;;;;;5055167;28;20077;-72
2023/12/05 01:27:20;;;;;;;0.20;0.20;;;;;;;;;;5073155;28;20033;-71
2023/12/05 01:29:58;;;;;;;0.10;0.10;;;;;;;;;;5073183;28;20538;-72
2023/12/05 01:32:25;;;;;;;0.13;0.13;;;;;;;;;;5073122;28;20048;-72
2023/12/05 01:34:51;;;;;;;0.43;0.43;;;;;;;;;;5073146;28;20100;-73
2023/12/05 01:37:18;;;;;;;0.20;0.20;;;;;;;;;;5073023;28;20032;-73
2023/12/05 01:39:53;;;;;;;0.20;0.20;;;;;;;;;;5074068;28;20031;-74
2023/12/05 01:42:19;;;;;;;0.10;0.10;;;;;;;;;;5076840;28;20031;-74
2023/12/05 01:44:52;;;;;;;0.20;0.20;;;;;;;;;;5077133;28;20025;-73
2023/12/05 01:48:10;;;;;;;0.75;0.75;;;;;;;;;;5076684;28;20107;-72
2023/12/05 01:51:06;;;;;;;0.75;0.75;;;;;;;;;;5077129;28;20050;-74
2023/12/05 01:53:45;;;;;;;0.10;0.10;;;;;;;;;;5076527;28;20037;-75
2023/12/05 01:56:18;;;;;;;0.10;0.10;;;;;;;;;;5059650;28;20051;-75
2023/12/05 01:58:45;;;;;;;0.10;0.10;;;;;;;;;;5076631;28;20425;-74
2023/12/05 02:01:48;;;;;;;0.10;0.10;;;;;;;;;;5076552;28;20111;-73
2023/12/05 02:04:18;;;;;;;0.20;0.20;;;;;;;;;;5076575;28;20050;-72
2023/12/05 02:06:44;;;;;;;;;;;;;;;;;;5077256;28;20037;-72
2023/12/05 02:09:14;;;;;;;0.10;0.10;;;;;;;;;;5076476;28;20344;-73
2023/12/05 02:11:49;;;;;;;0.10;0.10;;;;;;;;;;5076528;28;20073;-74
2023/12/05 02:14:19;;;;;;;0.73;0.50;;;;;;;;;;5076333;28;20021;-73
2023/12/05 02:16:59;;;;;;;0.30;0.30;;;;;;;;;;5076180;28;20055;-75
2023/12/05 02:20:06;;;;;;;0.25;0.25;;;;;;;;;;5076368;28;20183;-75
2023/12/05 02:23:14;;;;;;;0.10;0.10;;;;;;;;;;5073599;28;20036;-73
2023/12/05 02:26:06;;;;;;;0.20;0.20;;;;;;;;;;5076015;28;20082;-73
2023/12/05 02:28:38;;;;;;;0.20;0.20;;;;;;;;;;5058074;28;20410;-73
2023/12/05 02:31:41;;;;;;;0.20;0.20;;;;;;;;;;5075968;28;20387;-73
2023/12/05 02:34:34;;;;;;;0.10;0.10;;;;;;;;;;5073461;28;20060;-73
2023/12/05 02:37:08;;;;;;;0.40;0.40;;;;;;;;;;5076206;28;20112;-74
2023/12/05 02:39:38;;;;;;;0.28;0.28;;;;;;;;;;5075803;28;20033;-74
2023/12/05 02:42:07;;;;;;;;;;;;;;;;;;5076504;28;20120;-74
2023/12/05 02:44:38;;;;;;;0.15;0.15;;;;;;;;;;5075790;28;19999;-73
2023/12/05 02:47:29;;;;;;;0.17;0.17;;;;;;;;;;5075826;28;20052;-75
2023/12/05 02:50:12;;;;;;;0.10;0.10;;;;;;;;;;5057856;28;20055;-75
2023/12/05 02:52:42;;;;;;;0.32;0.32;;;;;;;;;;5074542;28;20112;-75
2023/12/05 02:58:02;;;;;;;0.10;0.10;;;;;;;;;;5013223;28;20034;-75
2023/12/05 03:00:37;;;;;;;0.20;0.20;;;;;;;;;;5013968;28;20038;-74
2023/12/05 03:03:03;;;;;;;0.10;0.10;;;;;;;;;;5014615;28;20046;-75
2023/12/05 03:05:38;;;;;;;0.10;0.10;;;;;;;;;;5014647;28;20035;-75
2023/12/05 03:08:09;;;;;;;0.20;0.20;;;;;;;;;;5013674;28;20371;-74
2023/12/05 03:10:41;;;;;;;0.47;0.40;;;;;;;;;;5013554;28;20033;-74
2023/12/05 03:13:14;;;;;;;1.02;0.55;;;;;;;;;;5013478;28;20042;-75
2023/12/05 03:15:53;;;;;;;0.25;0.25;;;;;;;;;;5013457;28;20038;-74
2023/12/05 03:18:24;;;;;;;0.65;0.65;;;;;;;;;;4996922;28;20142;-75
2023/12/05 03:24:08;;;;;;;0.10;0.10;;;;;;;;;;5013389;28;20076;-74
2023/12/05 03:26:52;;;;;;;0.20;0.20;;;;;;;;;;5013103;28;20045;-75
2023/12/05 03:29:21;;;;;;;0.10;0.10;;;;;;;;;;5051394;28;20081;-73
2023/12/05 03:31:52;;;;;;;0.20;0.20;;;;;;;;;;5074846;28;20364;-73
2023/12/05 03:34:27;;;;;;;0.30;0.30;;;;;;;;;;5056910;28;20367;-74
2023/12/05 03:36:54;;;;;;;0.20;0.20;;;;;;;;;;5074940;28;20036;-73
2023/12/05 03:39:20;;;;;;;0.20;0.20;;;;;;;;;;5074796;28;20029;-74
2023/12/05 03:41:47;;;;;;;0.10;0.10;;;;;;;;;;5074729;28;20016;-75
2023/12/05 03:44:16;;;;;;;0.95;0.90;;;;;;;;;;5056820;28;20031;-74
2023/12/05 03:46:42;;;;;;;0.10;0.10;;;;;;;;;;5055633;28;20415;-74
2023/12/05 03:49:18;;;;;;;0.10;0.10;;;;;;;;;;5074892;28;20021;-74
2023/12/05 03:51:48;;;;;;;0.10;0.10;;;;;;;;;;5073230;28;20040;-73
2023/12/05 03:54:20;;;;;;;3.10;0.75;;;;;;;;;;5074511;28;20039;-74
2023/12/05 03:57:05;;;;;;;0.22;0.22;;;;;;;;;;5074296;28;20035;-74
2023/12/05 03:59:31;;;;;;;0.20;0.20;;;;;;;;;;5074422;28;20028;-73
2023/12/05 04:02:00;;;;;;;0.20;0.20;;;;;;;;;;5073414;28;20031;-73
2023/12/05 04:04:27;;;;;;;;;;;;;;;;;;5070392;28;20028;-74
2023/12/05 04:06:53;;;;;;;0.20;0.20;;;;;;;;;;5070214;28;19909;-75
2023/12/05 04:09:19;;;;;;;0.57;0.55;;;;;;;;;;5070356;28;20024;-74
2023/12/05 04:11:46;;;;;;;0.20;0.20;;;;;;;;;;5052304;28;20025;-74
2023/12/05 04:14:37;;;;;;;0.75;0.52;;;;;;;;;;5070906;28;20368;-73
2023/12/05 04:17:22;;;;;;;0.17;0.17;;;;;;;;;;5070273;28;20041;-73
2023/12/05 04:19:51;;;;;;;1.13;1.02;;;;;;;;;;5069837;28;20021;-73
2023/12/05 04:22:23;;;;;;;0.50;0.50;;;;;;;;;;5070400;28;20064;-74
2023/12/05 04:24:49;;;;;;;1.33;0.40;;;;;;;;;;5052423;28;20489;-74
2023/12/05 04:27:16;;;;;;;0.10;0.10;;;;;;;;;;5080653;28;20032;-73
2023/12/05 04:29:55;;;;;;;0.10;0.10;;;;;;;;;;5090217;28;20111;-73
2023/12/05 04:32:23;;;;;;;0.10;0.10;;;;;;;;;;5096699;28;20630;-72
2023/12/05 04:34:56;;;;;;;0.10;0.10;;;;;;;;;;5092663;28;20104;-73
2023/12/05 04:37:23;;;;;;;0.20;0.20;;;;;;;;;;5110465;28;20097;-71
2023/12/05 04:39:56;;;;;;;0.10;0.10;;;;;;;;;;5110364;28;20102;-73
2023/12/05 04:42:22;;;;;;;0.10;0.10;;;;;;;;;;5110374;28;20070;-72
2023/12/05 04:44:49;;;;;;;0.10;0.10;;;;;;;;;;5109969;28;20019;-73
2023/12/05 04:47:15;;;;;;;0.52;0.52;;;;;;;;;;5110000;28;20198;-72
2023/12/05 04:49:42;;;;;;;0.20;0.20;;;;;;;;;;5110161;28;20475;-73
2023/12/05 04:52:12;;;;;;;0.10;0.10;;;;;;;;;;5110235;28;20028;-73
2023/12/05 04:54:44;;;;;;;0.10;0.10;;;;;;;;;;5110267;28;20237;-73
2023/12/05 04:57:10;;;;;;;0.20;0.20;;;;;;;;;;5110194;28;20094;-74
2023/12/05 04:59:37;;;;;;;1.38;1.27;;;;;;;;;;5110317;28;20036;-74
2023/12/05 05:02:04;;;;;;;0.10;0.10;;;;;;;;;;5092076;28;20028;-73
2023/12/05 05:04:34;;;;;;;0.20;0.20;;;;;;;;;;5072278;28;20028;-75
2023/12/05 05:07:03;;;;;;;0.20;0.20;;;;;;;;;;5073061;28;20089;-75
2023/12/05 05:09:40;;;;;;;0.35;0.35;;;;;;;;;;5070679;28;20019;-74
2023/12/05 05:12:21;;;;;;;0.10;0.10;;;;;;;;;;5089642;28;20031;-73
2023/12/05 05:14:55;;;;;;;1.73;0.70;;;;;;;;;;5091053;28;20030;-73
2023/12/05 05:17:22;;;;;;;0.10;0.10;;;;;;;;;;5094242;28;20122;-74
2023/12/05 05:19:49;;;;;;;0.10;0.10;;;;;;;;;;5093557;28;20024;-72
2023/12/05 05:22:15;;;;;;;0.10;0.10;;;;;;;;;;5093170;28;20180;-75
2023/12/05 05:24:58;;;;;;;0.10;0.10;;;;;;;;;;5074679;28;20035;-73
2023/12/05 05:28:11;;;;;;;0.10;0.10;;;;;;;;;;5011323;28;20056;-73
2023/12/05 05:30:38;;;;;;;0.20;0.20;;;;;;;;;;5011380;28;20546;-74
2023/12/05 05:33:08;;;;;;;0.20;0.20;;;;;;;;;;5056372;28;20333;-74
2023/12/05 05:35:46;;;;;;;0.20;0.20;;;;;;;;;;5093431;28;20023;-71
2023/12/05 05:38:21;;;;;;;0.10;0.10;;;;;;;;;;5093658;28;20032;-75
2023/12/05 05:41:12;;;;;;;0.20;0.20;;;;;;;;;;5093397;28;20047;-74
2023/12/05 05:43:38;;;;;;;1.00;0.38;;;;;;;;;;5092886;28;20032;-73
2023/12/05 05:46:05;;;;;;;0.10;0.10;;;;;;;;;;5093300;28;20114;-74
2023/12/05 05:48:49;;;;;;;0.20;0.20;;;;;;;;;;5092929;28;20044;-74
2023/12/05 05:51:27;;;;;;;0.10;0.10;;;;;;;;;;5091795;28;20055;-73
2023/12/05 05:54:18;;;;;;;0.30;0.22;;;;;;;;;;5092827;28;20043;-74
2023/12/05 05:56:56;;;;;;;0.95;0.40;;;;;;;;;;5092783;28;20361;-72
2023/12/05 05:59:26;;;;;;;0.17;0.17;;;;;;;;;;5092839;28;20035;-75
2023/12/05 06:02:07;;;;;;;0.60;0.47;;;;;;;;;;5087365;28;20020;-74
2023/12/05 06:05:17;;;;;;;0.10;0.10;;;;;;;;;;5078470;28;20047;-74
2023/12/05 06:07:43;;;;;;;0.10;0.10;;;;;;;;;;5091890;28;20081;-73
2023/12/05 06:10:38;;;;;;;0.20;0.20;;;;;;;;;;5089186;28;20020;-73
2023/12/05 06:17:02;;;;;;;0.22;0.22;;;;;;;;;;5034032;28;20048;-74
2023/12/05 06:20:24;;;;;;;0.10;0.10;;;;;;;;;;5090380;28;20475;-73
2023/12/05 06:23:19;;;;;;;1.92;0.90;;;;;;;;;;5067676;28;20074;-76
2023/12/05 06:25:51;;;;;;;1.25;0.47;;;;;;;;;;5082999;28;20051;-75
2023/12/05 06:28:46;;;;;;;0.20;0.20;;;;;;;;;;5093970;28;20070;-76
2023/12/05 06:31:13;;;;;;;0.85;0.70;;;;;;;;;;5110421;28;20048;-73
2023/12/05 06:33:45;;;;;;;0.30;0.30;;;;;;;;;;5112126;28;20016;-73
2023/12/05 06:36:58;;;;;;;0.73;0.73;;;;;;;;;;5049815;28;20068;-71
2023/12/05 06:39:43;;;;;;;0.35;0.30;;;;;;;;;;5091887;28;20035;-74
2023/12/05 06:42:09;;;;;;;0.10;0.10;;;;;;;;;;5092629;28;20028;-74
2023/12/05 06:44:41;;;;;;;0.20;0.20;;;;;;;;;;5093645;28;20024;-75
2023/12/05 06:47:25;;;;;;;0.20;0.20;;;;;;;;;;5091744;28;20134;-74
2023/12/05 06:52:57;;;;;;;0.17;0.17;;;;;;;;;;5078492;28;20109;-70
2023/12/05 06:55:33;;;;;;;0.20;0.20;;;;;;;;;;5091367;28;20765;-73
2023/12/05 06:58:37;;;;;;;0.20;0.20;;;;;;;;;;5092210;28;20036;-71
2023/12/05 07:01:28;;;;;;;2.22;1.20;;;;;;;;;;5091854;28;20027;-72
2023/12/05 07:04:15;;;;;;;1.27;0.93;;;;;;;;;;5091496;28;20024;-70
2023/12/05 07:06:48;;;;;;;1.85;0.90;;;;;;;;;;5091305;28;20024;-70
2023/12/05 07:10:07;;;;;;;0.55;0.50;;;;;;;;;;5089211;28;20028;-72
2023/12/05 07:12:43;;;;;;;4.68;0.75;;;;;;;;;;5082608;28;20574;-70
2023/12/05 07:15:16;;;;;;;0.60;0.60;;;;;;;;;;5092008;28;20490;-72
2023/12/05 07:21:19;;;;;;;0.80;0.80;;;;;;;;;;5091285;28;20047;-71
2023/12/05 07:24:11;;;;;;;0.65;0.50;;;;;;;;;;5091313;28;20039;-72
2023/12/05 07:26:59;;;;;;;0.10;0.10;;;;;;;;;;5085060;28;20476;-70
2023/12/05 07:29:56;;;;;;;0.20;0.20;;;;;;;;;;5075912;28;20491;-72
2023/12/05 07:33:10;;;;;;;0.88;0.57;;;;;;;;;;5071321;28;20044;-70
2023/12/05 07:36:10;;;;;;;6.85;1.52;;;;;;;;;;5090989;28;20042;-72
2023/12/05 07:48:59;;;;;;;0.75;0.30;;;;;;;;;;5052884;28;20404;-70
2023/12/05 07:52:18;;;;;;;0.10;0.10;;;;;;;;;;5073303;28;20063;-72
2023/12/05 07:55:37;;;;;;;0.10;0.10;;;;;;;;;;5069707;28;20044;-72
2023/12/05 07:58:33;;;;;;;0.90;0.63;;;;;;;;;;5073864;28;20040;-72
2023/12/05 08:01:33;;;;;;;0.50;0.40;;;;;;;;;;4999866;28;20036;-74
2023/12/05 08:04:46;;;;;;;0.10;0.10;;;;;;;;;;5089811;28;20039;-74
2023/12/05 08:07:40;;;;;;;0.32;0.30;;;;;;;;;;5072850;28;20097;-73
2023/12/05 08:10:35;;;;;;;;;;;;;;;;;;5050224;28;20505;-72
2023/12/05 08:13:11;;;;;;;0.20;0.20;;;;;;;;;;5077638;28;19908;-73
2023/12/05 08:15:49;;;;;;;0.10;0.10;;;;;;;;;;5087430;28;20380;-73
2023/12/05 08:18:22;;;;;;;;;;;;;;;;;;5090771;28;20062;-72
2023/12/05 08:21:15;;;;;;;0.10;0.10;;;;;;;;;;5090531;28;19919;-71
2023/12/05 08:24:04;;;;;;;0.40;0.40;;;;;;;;;;5089996;28;20068;-73
2023/12/05 08:27:25;;;;;;;0.10;0.10;;;;;;;;;;5085492;28;20036;-72
2023/12/05 08:30:25;;;;;;;0.20;0.20;;;;;;;;;;5090202;28;20050;-72
2023/12/05 08:33:10;;;;;;;0.20;0.20;;;;;;;;;;5080470;28;20481;-73
2023/12/05 08:35:59;;;;;;;0.20;0.20;;;;;;;;;;5056057;28;20040;-73
2023/12/05 08:38:28;;;;;;;2.17;0.43;;;;;;;;;;5084097;28;20364;-72
2023/12/05 08:44:54;;;;;;;2.83;1.00;;;;;;;;;;5059796;28;20047;-72
2023/12/05 08:47:46;;;;;;;3.10;1.63;;;;;;;;;;5074188;28;20043;-73
2023/12/05 08:50:36;;;;;;;0.20;0.20;;;;;;;;;;5086025;28;20036;-73
2023/12/05 08:53:03;;;;;;;0.17;0.17;;;;;;;;;;5076193;28;20081;-74
2023/12/05 08:55:36;;;;;;;0.10;0.10;;;;;;;;;;5088538;28;20032;-73
2023/12/05 08:58:26;;;;;;;0.10;0.10;;;;;;;;;;5070798;28;20112;-75
2023/12/05 09:01:28;;;;;;;0.10;0.10;;;;;;;;;;5074601;28;20078;-75
2023/12/05 09:04:13;;;;;;;0.20;0.20;;;;;;;;;;5088245;28;20032;-74
2023/12/05 09:10:13;;;;;;;0.10;0.10;;;;;;;;;;5082356;28;20437;-70
2023/12/05 09:13:22;;;;;;;0.30;0.30;;;;;;;;;;5077060;28;20043;-72
2023/12/05 09:16:15;;;;;;;0.10;0.10;;;;;;;;;;5075266;28;20102;-73
2023/12/05 09:19:18;;;;;;;0.20;0.20;;;;;;;;;;5085263;28;20035;-73
2023/12/05 09:22:18;;;;;;;0.10;0.10;;;;;;;;;;5071957;28;20039;-72
2023/12/05 09:25:09;;;;;;;0.10;0.10;;;;;;;;;;5070460;28;20123;-73
2023/12/05 09:28:14;;;;;;;0.10;0.10;;;;;;;;;;5065361;28;20021;-73
2023/12/05 09:30:55;;;;;;;0.10;0.10;;;;;;;;;;5008094;28;20045;-73
2023/12/05 09:33:36;;;;;;;0.10;0.10;;;;;;;;;;5018809;28;20121;-73
2023/12/05 09:36:32;;;;;;;0.15;0.15;;;;;;;;;;5011544;28;20057;-73
2023/12/05 09:39:49;;;;;;;0.43;0.43;;;;;;;;;;5003253;28;20095;-75
2023/12/05 09:42:16;;;;;;;0.10;0.10;;;;;;;;;;5009684;28;20514;-74
2023/12/05 09:44:55;;;;;;;0.10;0.10;;;;;;;;;;5010067;28;20034;-73
2023/12/05 09:47:44;;;;;;;0.10;0.10;;;;;;;;;;5008395;28;20049;-72
2023/12/05 09:53:29;;;;;;;0.10;0.10;;;;;;;;;;4989597;28;20311;-73
2023/12/05 09:56:28;;;;;;;0.20;0.20;;;;;;;;;;5049185;28;20033;-73
2023/12/05 09:59:29;;;;;;;0.15;0.15;;;;;;;;;;5025355;28;20120;-72
2023/12/05 10:02:03;;;;;;;0.10;0.10;;;;;;;;;;5056523;28;20029;-74
2023/12/05 10:05:00;;;;;;;0.10;0.10;;;;;;;;;;5038922;28;20025;-73
2023/12/05 10:07:32;;;;;;;0.20;0.20;;;;;;;;;;5069573;28;20036;-74
2023/12/05 10:10:13;;;;;;;0.22;0.22;;;;;;;;;;5069348;28;20383;-74
2023/12/05 10:13:04;;;;;;;0.10;0.10;;;;;;;;;;5069370;28;20043;-73
2023/12/05 10:15:48;;;;;;;0.10;0.10;;;;;;;;;;5069821;28;20111;-71
2023/12/05 10:18:52;;;;;;;0.20;0.20;;;;;;;;;;5069456;28;20040;-73
2023/12/05 10:25:06;;;;;;;0.10;0.10;;;;;;;;;;5045871;28;20071;-73
2023/12/05 10:28:05;;;;;;;0.10;0.10;;;;;;;;;;5041472;28;20060;-71
2023/12/05 10:31:15;;;;;;;0.10;0.10;;;;;;;;;;5061620;28;20117;-73
2023/12/05 10:34:02;;;;;;;0.10;0.10;;;;;;;;;;5031372;28;20060;-73
2023/12/05 10:37:24;;;;;;;0.10;0.10;;;;;;;;;;5062834;28;20560;-73
2023/12/05 10:40:20;;;;;;;0.10;0.10;;;;;;;;;;5060154;28;20040;-72
2023/12/05 10:42:51;;;;;;;0.20;0.20;;;;;;;;;;5049795;28;20373;-73
2023/12/05 10:48:49;;;;;;;0.10;0.10;;;;;;;;;;5027567;28;20057;-73
2023/12/05 10:51:36;;;;;;;0.10;0.10;;;;;;;;;;4997739;28;20029;-72
2023/12/05 10:54:05;;;;;;;2.75;1.00;;;;;;;;;;5057527;28;20053;-74
2023/12/05 10:56:34;;;;;;;;;;;;;;;;;;5069640;28;20044;-73
2023/12/05 11:03:05;;;;;;;0.10;0.10;;;;;;;;;;5067506;28;20371;-74
2023/12/05 11:08:54;;;;;;;0.20;0.20;;;;;;;;;;5018506;28;20048;-73
2023/12/05 11:11:54;;;;;;;0.10;0.10;;;;;;;;;;5058671;28;20044;-73
2023/12/05 11:14:31;;;;;;;0.20;0.20;;;;;;;;;;5068700;28;20035;-73
2023/12/05 11:17:10;;;;;;;0.10;0.10;;;;;;;;;;5051403;28;20028;-72
2023/12/05 11:20:14;;;;;;;0.10;0.10;;;;;;;;;;5050740;28;20086;-73
2023/12/05 11:22:47;;;;;;;0.10;0.10;;;;;;;;;;5068122;28;20086;-73
2023/12/05 11:25:31;;;;;;;0.10;0.10;;;;;;;;;;5068098;28;20025;-73
2023/12/05 11:28:08;;;;;;;0.10;0.10;;;;;;;;;;5068410;28;20427;-73
2023/12/05 11:30:49;;;;;;;0.10;0.10;;;;;;;;;;5068522;28;20052;-73
2023/12/05 11:33:20;;;;;;;0.25;0.25;;;;;;;;;;5067943;28;20028;-73
2023/12/05 11:36:02;;;;;;;0.20;0.20;;;;;;;;;;5067916;28;20035;-73
2023/12/05 11:38:28;;;;;;;0.20;0.20;;;;;;;;;;5068354;28;20112;-73
2023/12/05 11:41:13;;;;;;;0.20;0.20;;;;;;;;;;5068074;28;20090;-72
2023/12/05 11:43:42;;;;;;;0.10;0.10;;;;;;;;;;5050095;28;20380;-73
2023/12/05 11:46:09;;;;;;;0.55;0.55;;;;;;;;;;5068545;28;20039;-73
2023/12/05 11:48:35;;;;;;;0.13;0.13;;;;;;;;;;5074234;28;20479;-73
2023/12/05 11:51:04;;;;;;;0.10;0.10;;;;;;;;;;5089785;28;20035;-73
2023/12/05 11:53:30;;;;;;;0.10;0.10;;;;;;;;;;5070642;28;20390;-72
2023/12/05 11:55:57;;;;;;;0.10;0.10;;;;;;;;;;5070096;28;20028;-73
2023/12/05 11:58:29;;;;;;;0.10;0.10;;;;;;;;;;5088795;28;20032;-73
2023/12/05 12:01:04;;;;;;;0.20;0.20;;;;;;;;;;5089102;28;20027;-73
2023/12/05 12:03:48;;;;;;;0.10;0.10;;;;;;;;;;5088378;28;20059;-72
2023/12/05 12:06:18;;;;;;;0.20;0.20;;;;;;;;;;5090348;28;20073;-73
2023/12/05 12:08:48;;;;;;;0.10;0.10;;;;;;;;;;5089093;28;20085;-73
2023/12/05 12:11:14;;;;;;;0.17;0.17;;;;;;;;;;5087742;28;20028;-72
2023/12/05 12:13:40;;;;;;;0.17;0.17;;;;;;;;;;5087967;28;20039;-73
2023/12/05 12:16:06;;;;;;;0.17;0.17;;;;;;;;;;5088012;28;20036;-73
2023/12/05 12:18:33;;;;;;;0.10;0.10;;;;;;;;;;5087280;28;20479;-73
2023/12/05 12:20:59;;;;;;;0.13;0.13;;;;;;;;;;5070544;28;20099;-73
2023/12/05 12:23:26;;;;;;;0.10;0.10;;;;;;;;;;5087072;28;20568;-73
2023/12/05 12:25:53;;;;;;;0.10;0.10;;;;;;;;;;5087702;28;20088;-74
2023/12/05 12:28:24;;;;;;;0.15;0.15;;;;;;;;;;5069753;28;20402;-73
2023/12/05 12:30:51;;;;;;;0.15;0.15;;;;;;;;;;5087710;28;20031;-73
2023/12/05 12:33:17;;;;;;;0.20;0.20;;;;;;;;;;5087079;28;20043;-73
2023/12/05 12:35:43;;;;;;;0.10;0.10;;;;;;;;;;5068487;28;20036;-74
2023/12/05 12:38:09;;;;;;;0.10;0.10;;;;;;;;;;5075937;28;20067;-72
2023/12/05 12:40:36;;;;;;;3.60;3.40;;;;;;;;;;5053570;28;20055;-71
2023/12/05 12:43:03;;;;;;;0.10;0.10;;;;;;;;;;5083064;28;20062;-72
2023/12/05 12:45:30;;;;;;;0.10;0.10;;;;;;;;;;5086568;28;20028;-73
2023/12/05 12:47:57;;;;;;;0.20;0.20;;;;;;;;;;5086282;28;20058;-73
2023/12/05 12:50:23;;;;;;;0.20;0.20;;;;;;;;;;5087190;28;20032;-73
2023/12/05 12:52:50;;;;;;;0.22;0.22;;;;;;;;;;5085387;28;20067;-73
2023/12/05 12:55:16;;;;;;;0.20;0.20;;;;;;;;;;5068015;28;20036;-72
2023/12/05 12:57:42;;;;;;;0.38;0.30;;;;;;;;;;5066801;28;20137;-75
2023/12/05 13:00:09;;;;;;;5.28;1.85;;;;;;;;;;5048934;28;20028;-72
2023/12/05 13:02:36;;;;;;;0.20;0.20;;;;;;;;;;5066795;28;20055;-73
2023/12/05 13:05:02;;;;;;;0.20;0.20;;;;;;;;;;5067287;28;20357;-73
2023/12/05 13:07:30;;;;;;;0.20;0.20;;;;;;;;;;5067149;28;20086;-73
2023/12/05 13:09:56;;;;;;;0.38;0.38;;;;;;;;;;5066502;28;20039;-73
2023/12/05 13:12:23;;;;;;;0.20;0.20;;;;;;;;;;5066358;28;20028;-73
2023/12/05 13:14:49;;;;;;;0.30;0.30;;;;;;;;;;5066944;28;20040;-72
2023/12/05 13:17:16;;;;;;;0.50;0.50;;;;;;;;;;5066632;28;20052;-73
2023/12/05 13:19:42;;;;;;;0.20;0.20;;;;;;;;;;5048846;28;20086;-73
2023/12/05 13:22:09;;;;;;;0.30;0.30;;;;;;;;;;5067004;28;20081;-72
2023/12/05 13:24:35;;;;;;;0.30;0.30;;;;;;;;;;5066731;28;20048;-71
2023/12/05 13:27:01;;;;;;;3.10;1.20;;;;;;;;;;5067257;28;20714;-73
2023/12/05 13:29:28;;;;;;;0.20;0.20;;;;;;;;;;5066387;28;20107;-73
2023/12/05 13:31:54;;;;;;;0.20;0.20;;;;;;;;;;5066351;28;20028;-73
2023/12/05 13:34:22;;;;;;;0.20;0.20;;;;;;;;;;5048381;28;20032;-72
2023/12/05 13:36:48;;;;;;;0.32;0.32;;;;;;;;;;5068880;28;20028;-72
2023/12/05 13:39:15;;;;;;;0.30;0.30;;;;;;;;;;5070840;28;20117;-73
2023/12/05 13:41:42;;;;;;;0.30;0.30;;;;;;;;;;5071011;28;20035;-73
2023/12/05 13:44:11;;;;;;;0.30;0.30;;;;;;;;;;5071042;28;20111;-73
2023/12/05 13:46:37;;;;;;;0.22;0.22;;;;;;;;;;5070753;28;20039;-73
2023/12/05 13:49:04;;;;;;;0.30;0.30;;;;;;;;;;5051681;28;20092;-73
2023/12/05 13:51:31;;;;;;;0.20;0.20;;;;;;;;;;5070385;28;20493;-73
2023/12/05 13:53:57;;;;;;;0.20;0.20;;;;;;;;;;5052487;28;20052;-74
2023/12/05 13:56:24;;;;;;;0.20;0.20;;;;;;;;;;5070016;28;20104;-73
2023/12/05 13:58:50;;;;;;;0.20;0.20;;;;;;;;;;5070565;28;20028;-73
2023/12/05 14:01:16;;;;;;;0.68;0.43;;;;;;;;;;5069927;28;20033;-74
2023/12/05 14:03:43;;;;;;;0.30;0.30;;;;;;;;;;5070071;28;20165;-73
2023/12/05 14:06:09;;;;;;;0.30;0.30;;;;;;;;;;5070198;28;20035;-73
2023/12/05 14:08:36;;;;;;;0.20;0.20;;;;;;;;;;5070209;28;20035;-73
2023/12/05 14:11:02;;;;;;;0.20;0.20;;;;;;;;;;5069891;28;20029;-72
2023/12/05 14:13:29;;;;;;;0.10;0.10;;;;;;;;;;5070218;28;20024;-73
2023/12/05 14:15:55;;;;;;;0.20;0.20;;;;;;;;;;5069594;28;20024;-72
2023/12/05 14:18:21;;;;;;;1.00;1.00;;;;;;;;;;5070418;28;20024;-73
2023/12/05 14:20:47;;;;;;;0.10;0.10;;;;;;;;;;5069858;28;20491;-73
2023/12/05 14:23:14;;;;;;;0.20;0.20;;;;;;;;;;5069606;28;20475;-73
2023/12/05 14:25:40;;;;;;;0.30;0.30;;;;;;;;;;5069587;28;20539;-73
2023/12/05 14:28:06;;;;;;;0.10;0.10;;;;;;;;;;5069448;28;20111;-72
2023/12/05 14:30:33;;;;;;;0.15;0.15;;;;;;;;;;5077750;28;20039;-73
2023/12/05 14:32:59;;;;;;;0.10;0.10;;;;;;;;;;5090013;28;20048;-72
2023/12/05 14:35:25;;;;;;;0.10;0.10;;;;;;;;;;5071406;28;20564;-72
2023/12/05 14:37:50;;;;;;;0.20;0.20;;;;;;;;;;5089710;28;20028;-73
2023/12/05 14:40:17;;;;;;;0.40;0.40;;;;;;;;;;5089205;28;20154;-73
2023/12/05 14:42:44;;;;;;;0.45;0.45;;;;;;;;;;5079929;28;20039;-73
2023/12/05 14:45:10;;;;;;;0.22;0.22;;;;;;;;;;5070711;28;20108;-74
2023/12/05 14:47:36;;;;;;;0.57;0.52;;;;;;;;;;5070339;28;20487;-74
2023/12/05 14:50:02;;;;;;;0.20;0.20;;;;;;;;;;5071101;28;20048;-73
2023/12/05 14:52:29;;;;;;;0.50;0.50;;;;;;;;;;5071714;28;20423;-73
2023/12/05 14:54:55;;;;;;;1.48;1.45;;;;;;;;;;5071683;28;20078;-74
2023/12/05 14:57:21;;;;;;;0.32;0.32;;;;;;;;;;5053505;28;20044;-73
2023/12/05 14:59:47;;;;;;;0.20;0.20;;;;;;;;;;5071242;28;20032;-73
2023/12/05 15:02:13;;;;;;;0.20;0.20;;;;;;;;;;5071967;28;20482;-72
2023/12/05 15:04:40;;;;;;;0.98;0.93;;;;;;;;;;5071617;28;20510;-73
2023/12/05 15:07:06;;;;;;;5.15;1.60;;;;;;;;;;5071374;28;20123;-73
2023/12/05 15:09:33;;;;;;;1.83;0.77;;;;;;;;;;5071361;28;20032;-74
2023/12/05 15:12:02;;;;;;;0.47;0.47;;;;;;;;;;5070966;28;20024;-74
2023/12/05 15:14:28;;;;;;;0.30;0.30;;;;;;;;;;5071185;28;20017;-72
2023/12/05 15:16:54;;;;;;;2.92;1.55;;;;;;;;;;5071077;28;20032;-73
2023/12/05 15:19:20;;;;;;;1.27;1.23;;;;;;;;;;5071144;28;20029;-75
2023/12/05 15:21:47;;;;;;;0.32;0.22;;;;;;;;;;5070575;28;20070;-75
2023/12/05 15:24:13;;;;;;;0.20;0.20;;;;;;;;;;5070795;28;20025;-75
2023/12/05 15:26:39;;;;;;;0.40;0.40;;;;;;;;;;5070907;28;20028;-75
2023/12/05 15:29:06;;;;;;;1.02;0.70;;;;;;;;;;5070997;28;20025;-73
2023/12/05 15:31:32;;;;;;;0.85;0.65;;;;;;;;;;5070802;28;20039;-73
2023/12/05 15:33:58;;;;;;;0.10;0.10;;;;;;;;;;5070434;28;20021;-71
2023/12/05 15:36:24;;;;;;;0.10;0.10;;;;;;;;;;5070871;28;20081;-74
2023/12/05 15:38:50;;;;;;;0.10;0.10;;;;;;;;;;5052133;28;20025;-74
2023/12/05 15:41:16;;;;;;;0.20;0.20;;;;;;;;;;5068059;28;20041;-73
2023/12/05 15:43:43;;;;;;;0.17;0.17;;;;;;;;;;5067992;28;20025;-74
2023/12/05 15:46:19;;;;;;;0.47;0.47;;;;;;;;;;5070119;28;20488;-74
2023/12/05 15:48:45;;;;;;;0.55;0.55;;;;;;;;;;5070055;28;20135;-75
2023/12/05 15:51:13;;;;;;;0.75;0.75;;;;;;;;;;5070248;28;20173;-74
2023/12/05 15:53:41;;;;;;;0.10;0.10;;;;;;;;;;5069814;28;20043;-74
2023/12/05 15:56:08;;;;;;;1.50;0.70;;;;;;;;;;5070126;28;20097;-74
2023/12/05 15:58:34;;;;;;;0.10;0.10;;;;;;;;;;5070094;28;20472;-73
2023/12/05 16:01:01;;;;;;;0.10;0.10;;;;;;;;;;5070166;28;20032;-74
2023/12/05 16:03:30;;;;;;;0.50;0.43;;;;;;;;;;5070055;28;20020;-74
2023/12/05 16:06:01;;;;;;;0.13;0.13;;;;;;;;;;5069575;28;20043;-73
2023/12/05 16:08:27;;;;;;;0.10;0.10;;;;;;;;;;5084959;28;20038;-74
2023/12/05 16:10:54;;;;;;;0.68;0.43;;;;;;;;;;5071895;28;20406;-74
2023/12/05 16:13:21;;;;;;;0.10;0.10;;;;;;;;;;5089643;28;20107;-72
2023/12/05 16:15:47;;;;;;;0.10;0.10;;;;;;;;;;5071640;28;20031;-71
2023/12/05 16:18:14;;;;;;;0.10;0.10;;;;;;;;;;5085875;28;20036;-75
2023/12/05 16:20:42;;;;;;;0.52;0.52;;;;;;;;;;5080110;28;20027;-75
2023/12/05 16:23:08;;;;;;;0.43;0.43;;;;;;;;;;5081178;28;20357;-73
2023/12/05 16:25:35;;;;;;;0.63;0.63;;;;;;;;;;5077298;28;20034;-75
2023/12/05 16:28:03;;;;;;;0.10;0.10;;;;;;;;;;5072942;28;20464;-74
2023/12/05 16:30:29;;;;;;;0.10;0.10;;;;;;;;;;5077535;28;20021;-73
2023/12/05 16:32:56;;;;;;;2.92;2.72;;;;;;;;;;5089673;28;20028;-73